Accueil
METAR-TAF:

METAR-TAF

Aéroports :

Base aérienne de Coxyde

Coxyde, Belgique

latitude: 51-05N, longitude: 002-39E, altitude: 4 m

Observation

Le bulletin a été fait il y a 20 minutes, à 08:55 UTC
Vent 13 kt de nord/nord-est
Température 9°C
Humidité 66%
Pression 1028 hPa
Visibilité 10 km ou plus

METAR: EBFN 170855Z AUTO 02013KT 9999 NCD 09/03 Q1028 BLU

Heure: 11:15 (09:15 UTC)

Prévision

Le bulletin a été fait il y a 3 heures et 34 minutes, à 05:41 UTC
Prévision valable du 17 à 07 UTC au 17 à 16 UTC
Vent 8 kt de nord/nord-est
Visibilité 10 km ou plus
Ciel clair
Evoluant progressivement
du 17 à 07 UTC au 17 à 09 UTC
Vent 12 kt de nord/nord-est
Temporairement
du 17 à 07 UTC au 17 à 16 UTC
Quelques nuages à une hauteur de 2000 ft

TAF: EBFN 170541Z 1707/1716 03008KT 9999 SKC BECMG 1707/1709 03012KT TEMPO 1707/1716 FEW020 BY EBWM

Observations et prévisions météorologiques de plus de 4000 aéroports (messages METAR et TAF).

Les stations disponibles sont représentées par des disques jaunes et rouges sur la carte.

Passer la souris dessus pour voir le nom de la station.

Cliquer dessus pour voir les observations et prévisions météorologiques.

Pour changer de carte: cliquez sur les boutons verts avec une croix noire pour zoomer, sur le bouton vert avec un tiret pour effectuer un zoom arrière, ou sur les flèches vertes pour les cartes adjacentes.


METAR-TAF: